createdAt,value
2023-07-12T14:01:26.295Z,97865.20
2023-07-12T14:03:55.120Z,97860.07
2023-07-12T14:06:39.278Z,97855.99
2023-07-12T14:09:11.234Z,97854.90
2023-07-12T14:11:38.270Z,97852.40
2023-07-12T14:14:05.094Z,97847.83
2023-07-12T14:16:31.871Z,97844.09
2023-07-12T14:18:58.524Z,97840.73
2023-07-12T14:21:25.232Z,97837.11
2023-07-12T14:23:51.978Z,97841.34
2023-07-12T14:26:25.210Z,97843.67
2023-07-12T14:28:58.403Z,97834.82
2023-07-12T14:31:28.008Z,97830.33
2023-07-12T14:33:55.176Z,97824.27
2023-07-12T14:36:24.686Z,97820.86
2023-07-12T14:38:51.234Z,97818.98
2023-07-12T14:41:28.599Z,97812.48
2023-07-12T14:43:58.937Z,97813.30
2023-07-12T14:46:25.731Z,97807.27
2023-07-12T14:48:52.519Z,97804.42
2023-07-12T14:51:22.024Z,97806.26
2023-07-12T14:53:49.285Z,97804.48
2023-07-12T14:56:16.904Z,97805.44
2023-07-12T14:58:44.932Z,97803.51
2023-07-12T15:01:26.902Z,97800.38
2023-07-12T15:03:55.038Z,97796.04
2023-07-12T15:06:22.844Z,97800.73
2023-07-12T15:08:51.291Z,97791.06
2023-07-12T15:11:21.926Z,97787.70
2023-07-12T15:13:49.600Z,97782.40
2023-07-12T15:16:22.549Z,97773.61
2023-07-12T15:18:50.137Z,97772.52
2023-07-12T15:21:22.940Z,97775.10
2023-07-12T15:23:50.697Z,97777.61
2023-07-12T15:26:18.461Z,97779.34
2023-07-12T15:28:45.527Z,97782.95
2023-07-12T15:31:23.237Z,97786.72
2023-07-12T15:33:51.604Z,97782.97
2023-07-12T15:36:19.070Z,97774.67
2023-07-12T15:38:50.784Z,97775.19
2023-07-12T15:41:25.675Z,97774.10
2023-07-12T15:43:55.155Z,97774.91
2023-07-12T15:46:23.566Z,97769.88
2023-07-12T15:48:50.299Z,97773.14
2023-07-12T15:51:26.737Z,97773.73
2023-07-12T15:53:55.266Z,97777.45
2023-07-12T15:56:26.574Z,97777.40
2023-07-12T15:58:53.511Z,97775.08
2023-07-12T16:01:28.726Z,97771.48
2023-07-12T16:03:56.728Z,97764.66
2023-07-12T16:06:24.488Z,97763.66
2023-07-12T16:08:53.178Z,97764.73
2023-07-12T16:11:22.891Z,97755.83
2023-07-12T16:13:59.828Z,97758.73
2023-07-12T16:16:29.571Z,97757.71
2023-07-12T16:18:56.320Z,97750.83
2023-07-12T16:21:28.766Z,97752.83
2023-07-12T16:23:57.413Z,97750.83
2023-07-12T16:26:29.756Z,97748.42
2023-07-12T16:28:57.447Z,97750.98
2023-07-12T16:31:23.983Z,97757.39
2023-07-12T16:33:55.508Z,97762.66
2023-07-12T16:36:23.625Z,97759.41
2023-07-12T16:38:51.127Z,97755.66
2023-07-12T16:41:25.445Z,97757.45
2023-07-12T16:43:52.670Z,97766.26
2023-07-12T16:46:20.528Z,97765.02
2023-07-12T16:48:48.038Z,97769.98
2023-07-12T16:51:28.075Z,97771.30
2023-07-12T16:53:55.137Z,97772.96
2023-07-12T16:56:23.604Z,97773.23
2023-07-12T16:58:50.569Z,97769.31
2023-07-12T17:01:23.088Z,97771.73
2023-07-12T17:03:50.412Z,97779.69
2023-07-12T17:06:17.334Z,97782.42
2023-07-12T17:08:44.389Z,97788.45
2023-07-12T17:11:16.388Z,97792.07
2023-07-12T17:13:43.025Z,97790.88
2023-07-12T17:16:12.826Z,97793.23
2023-07-12T17:18:39.794Z,97796.88
2023-07-12T17:21:11.470Z,97800.08
2023-07-12T17:23:38.709Z,97796.42
2023-07-12T17:26:05.451Z,97797.64
2023-07-12T17:28:32.305Z,97803.63
2023-07-12T17:31:08.772Z,97806.13
2023-07-12T17:33:36.869Z,97810.27
2023-07-12T17:36:04.939Z,97814.10
2023-07-12T17:38:31.505Z,97810.22
2023-07-12T17:40:58.232Z,97815.73
2023-07-12T17:43:30.570Z,97820.80
2023-07-12T17:45:57.878Z,97826.27
2023-07-12T17:48:25.557Z,97831.97
2023-07-12T17:50:58.438Z,97826.95
2023-07-12T17:53:25.156Z,97823.02
2023-07-12T17:55:56.921Z,97825.88
2023-07-12T17:58:25.041Z,97826.69
2023-07-12T18:00:54.017Z,97823.35
2023-07-12T18:03:28.635Z,97831.49
2023-07-12T18:05:55.493Z,97834.73
2023-07-12T18:08:22.516Z,97833.73
2023-07-12T18:10:52.367Z,97829.36
2023-07-12T18:13:21.609Z,97830.77
2023-07-12T18:15:49.104Z,97827.31
2023-07-12T18:18:16.109Z,97825.52
2023-07-12T18:20:42.756Z,97827.74
2023-07-12T18:23:13.930Z,97826.24
2023-07-12T18:25:40.724Z,97831.27
2023-07-12T18:28:07.364Z,97833.11
2023-07-12T18:30:34.325Z,97833.48
2023-07-12T18:33:01.110Z,97833.73
2023-07-12T18:35:28.237Z,97830.68
2023-07-12T18:37:55.148Z,97837.64
2023-07-12T18:40:24.993Z,97846.09
2023-07-12T18:42:52.034Z,97853.20
2023-07-12T18:45:33.524Z,97859.08
2023-07-12T18:48:00.467Z,97857.92
2023-07-12T18:50:27.838Z,97862.65
2023-07-12T18:52:54.514Z,97860.48
2023-07-12T18:55:21.221Z,97856.94
2023-07-12T18:57:48.080Z,97856.52
2023-07-12T19:00:14.923Z,97852.02
2023-07-12T19:02:41.520Z,97844.85
2023-07-12T19:05:23.504Z,97841.66
2023-07-12T19:07:50.722Z,97849.81
2023-07-12T19:10:22.322Z,97858.23
2023-07-12T19:12:51.176Z,97865.85
2023-07-12T19:15:22.429Z,97872.68
2023-07-12T19:17:49.473Z,97875.16
2023-07-12T19:20:18.182Z,97872.39
2023-07-12T19:22:45.693Z,97872.88
2023-07-12T19:25:24.383Z,97874.30
2023-07-12T19:27:52.493Z,97863.92
2023-07-12T19:30:23.295Z,97860.41
2023-07-12T19:32:50.400Z,97864.95
2023-07-12T19:35:30.736Z,97868.45
2023-07-12T19:37:57.464Z,97864.91
2023-07-12T19:40:26.026Z,97871.80
2023-07-12T19:42:52.674Z,97871.42
2023-07-12T19:45:22.930Z,97867.05
2023-07-12T19:47:51.036Z,97871.59
2023-07-12T19:50:17.647Z,97869.84
2023-07-12T19:52:44.221Z,97869.95
2023-07-12T19:55:23.909Z,97874.92
2023-07-12T19:57:50.773Z,97882.13
2023-07-12T20:00:17.831Z,97887.75
2023-07-12T20:02:44.668Z,97894.85
2023-07-12T20:05:12.686Z,97902.38
2023-07-12T20:07:40.611Z,97909.99
2023-07-12T20:10:08.332Z,97907.82
2023-07-12T20:12:36.061Z,97911.98
2023-07-12T20:15:02.703Z,97911.75
2023-07-12T20:17:29.293Z,97912.95
2023-07-12T20:19:55.991Z,97913.11
2023-07-12T20:22:22.786Z,97913.02
2023-07-12T20:24:49.882Z,97913.92
2023-07-12T20:27:16.730Z,97916.89
2023-07-12T20:29:43.370Z,97915.89
2023-07-12T20:34:36.760Z,97916.45
2023-07-12T20:37:03.615Z,97921.67
2023-07-12T20:39:30.259Z,97921.45
2023-07-12T20:41:56.792Z,97923.14
2023-07-12T20:44:23.541Z,97915.66
2023-07-12T20:46:50.315Z,97917.38
2023-07-12T20:49:17.464Z,97919.32
2023-07-12T20:51:44.106Z,97922.98
2023-07-12T20:54:11.109Z,97923.77
2023-07-12T20:56:37.779Z,97926.95
2023-07-12T20:59:04.741Z,97923.16
2023-07-12T21:01:31.419Z,97917.95
2023-07-12T21:03:58.240Z,97916.09
2023-07-12T21:06:28.274Z,97914.45
2023-07-12T21:08:56.252Z,97909.48
2023-07-12T21:11:23.088Z,97917.23
2023-07-12T21:13:49.726Z,97917.58
2023-07-12T21:16:18.227Z,97914.56
2023-07-12T21:18:45.642Z,97905.67
2023-07-12T21:21:12.823Z,97903.70
2023-07-12T21:23:40.979Z,97911.14
2023-07-12T21:26:08.827Z,97923.11
2023-07-12T21:28:36.345Z,97926.27
2023-07-12T21:31:04.039Z,97920.30
2023-07-12T21:33:31.185Z,97925.86
2023-07-12T21:35:58.862Z,97925.50
2023-07-12T21:38:27.434Z,97928.11
2023-07-12T21:41:05.839Z,97917.16
2023-07-12T21:43:32.598Z,97913.48
2023-07-12T21:45:59.563Z,97915.33
2023-07-12T21:48:26.875Z,97919.90
2023-07-12T21:50:55.514Z,97928.74
2023-07-12T21:53:22.662Z,97923.83
2023-07-12T21:55:49.916Z,97925.38
2023-07-12T21:58:17.940Z,97920.91
2023-07-12T22:00:45.887Z,97921.31
2023-07-12T22:03:13.574Z,97923.09
2023-07-12T22:05:43.437Z,97923.80
2023-07-12T22:08:10.227Z,97926.38
2023-07-12T22:10:37.269Z,97933.14
2023-07-12T22:13:04.149Z,97938.08
2023-07-12T22:15:31.273Z,97941.27
2023-07-12T22:17:58.422Z,97938.66
2023-07-12T22:20:25.953Z,97935.55
2023-07-12T22:22:52.767Z,97936.77
2023-07-12T22:25:20.413Z,97940.86
2023-07-12T22:27:47.847Z,97939.86
2023-07-12T22:30:28.570Z,97942.85
2023-07-12T22:32:55.329Z,97946.46
2023-07-12T22:35:23.874Z,97946.72
2023-07-12T22:37:52.789Z,97948.59
2023-07-12T22:40:20.032Z,97950.44
2023-07-12T22:42:48.210Z,97949.15
2023-07-12T22:45:15.259Z,97946.77
2023-07-12T22:47:42.081Z,97951.27
2023-07-12T22:50:09.560Z,97954.84
2023-07-12T22:52:36.835Z,97951.99
2023-07-12T22:55:04.854Z,97950.34
2023-07-12T22:57:32.471Z,97955.77
2023-07-12T23:00:00.274Z,97955.69
2023-07-12T23:02:27.212Z,97951.12
2023-07-12T23:04:54.261Z,97946.65
2023-07-12T23:07:20.995Z,97953.16
2023-07-12T23:09:48.668Z,97957.14
2023-07-12T23:12:15.833Z,97955.66
2023-07-12T23:14:42.575Z,97959.48
2023-07-12T23:17:09.589Z,97955.58
2023-07-12T23:19:38.284Z,97957.44
2023-07-12T23:22:05.702Z,97958.89
2023-07-12T23:24:32.975Z,97967.54
2023-07-12T23:27:00.185Z,97972.13
2023-07-12T23:29:26.932Z,97967.48
2023-07-12T23:31:53.580Z,97965.64
2023-07-12T23:34:20.221Z,97966.42
2023-07-12T23:36:46.861Z,97958.55
2023-07-12T23:39:13.404Z,97955.02
2023-07-12T23:41:39.996Z,97950.51
2023-07-12T23:44:06.597Z,97947.60
2023-07-12T23:46:33.392Z,97940.26
2023-07-12T23:49:00.387Z,97937.93
2023-07-12T23:51:27.344Z,97945.38
2023-07-12T23:53:53.923Z,97937.28
2023-07-12T23:56:20.722Z,97924.88
2023-07-12T23:58:48.029Z,97926.04
